createdAt,value
2018-06-04T00:02:18.736Z,100386.44
2018-06-04T00:04:47.365Z,100387.27
2018-06-04T00:07:15.477Z,100386.95
2018-06-04T00:09:43.548Z,100386.95
2018-06-04T00:12:18.301Z,100382.28
2018-06-04T00:14:46.495Z,100376.61
2018-06-04T00:17:14.734Z,100377.41
2018-06-04T00:19:42.827Z,100381.67
2018-06-04T00:22:10.919Z,100373.83
2018-06-04T00:24:39.010Z,100375.66
2018-06-04T00:27:07.110Z,100367.13
2018-06-04T00:29:35.434Z,100366.63
2018-06-04T00:32:04.504Z,100357.67
2018-06-04T00:34:32.592Z,100356.76
2018-06-04T00:37:00.703Z,100355.63
2018-06-04T00:39:28.784Z,100357.75
2018-06-04T00:41:56.867Z,100358.63
2018-06-04T00:44:24.945Z,100354.80
2018-06-04T00:46:53.042Z,100346.95
2018-06-04T00:49:21.155Z,100353.73
2018-06-04T00:51:49.237Z,100342.50
2018-06-04T00:54:17.320Z,100343.54
2018-06-04T00:56:45.396Z,100348.66
2018-06-04T00:59:13.500Z,100346.84
2018-06-04T01:01:41.622Z,100347.38
2018-06-04T01:04:09.697Z,100343.83
2018-06-04T01:06:37.778Z,100338.03
2018-06-04T01:09:08.367Z,100329.61
2018-06-04T01:11:36.475Z,100332.81
2018-06-04T01:14:04.580Z,100336.33
2018-06-04T01:16:32.680Z,100335.68
2018-06-04T01:19:00.772Z,100337.34
2018-06-04T01:21:28.870Z,100331.05
2018-06-04T01:23:56.942Z,100326.65
2018-06-04T01:26:25.030Z,100329.72
2018-06-04T01:28:53.515Z,100335.13
2018-06-04T01:31:21.580Z,100337.34
2018-06-04T01:33:49.631Z,100336.45
2018-06-04T01:36:17.707Z,100331.72
2018-06-04T01:38:45.825Z,100325.61
2018-06-04T01:41:13.913Z,100326.95
2018-06-04T01:43:42.015Z,100324.50
2018-06-04T01:46:10.100Z,100321.30
2018-06-04T01:48:38.214Z,100316.17
2018-06-04T01:51:06.343Z,100323.75
2018-06-04T01:53:34.436Z,100311.00
2018-06-04T01:56:02.515Z,100310.18
2018-06-04T01:58:30.567Z,100313.92
2018-06-04T02:00:58.657Z,100302.27
2018-06-04T02:03:26.712Z,100303.89
2018-06-04T02:05:54.801Z,100300.62
2018-06-04T02:08:22.877Z,100300.81
2018-06-04T02:10:50.986Z,100301.41
2018-06-04T02:13:19.019Z,100292.41
2018-06-04T02:15:47.082Z,100295.36
2018-06-04T02:18:15.200Z,100290.12
2018-06-04T02:20:43.303Z,100281.98
2018-06-04T02:23:11.396Z,100280.13
2018-06-04T02:25:39.497Z,100283.67
2018-06-04T02:28:07.604Z,100286.89
2018-06-04T02:30:42.259Z,100283.31
2018-06-04T02:33:10.332Z,100287.25
2018-06-04T02:35:38.390Z,100291.35
2018-06-04T02:38:06.474Z,100285.82
2018-06-04T02:40:34.588Z,100281.64
2018-06-04T02:43:02.757Z,100287.41
2018-06-04T02:45:30.856Z,100283.94
2018-06-04T02:47:58.935Z,100286.31
2018-06-04T02:50:27.032Z,100287.97
2018-06-04T02:52:55.132Z,100298.18
2018-06-04T02:55:23.263Z,100295.39
2018-06-04T02:57:51.335Z,100293.02
2018-06-04T03:00:19.399Z,100292.68
2018-06-04T03:02:47.472Z,100295.73
2018-06-04T03:05:15.536Z,100290.53
2018-06-04T03:07:43.672Z,100290.61
2018-06-04T03:10:11.748Z,100290.61
2018-06-04T03:12:39.847Z,100289.73
2018-06-04T03:15:08.230Z,100283.34
2018-06-04T03:17:36.292Z,100286.51
2018-06-04T03:20:04.365Z,100287.11
2018-06-04T03:22:32.438Z,100287.22
2018-06-04T03:25:00.529Z,100278.78
2018-06-04T03:27:28.595Z,100285.89
2018-06-04T03:29:56.679Z,100279.91
2018-06-04T03:32:24.805Z,100271.63
2018-06-04T03:34:52.981Z,100276.79
2018-06-04T03:37:21.024Z,100279.23
2018-06-04T03:39:49.089Z,100273.81
2018-06-04T03:42:17.160Z,100278.78
2018-06-04T03:44:45.253Z,100277.58
2018-06-04T03:47:13.340Z,100278.64
2018-06-04T03:49:41.433Z,100283.56
2018-06-04T03:52:09.524Z,100287.22
2018-06-04T03:54:37.607Z,100281.49
2018-06-04T03:57:05.706Z,100283.08
2018-06-04T03:59:33.792Z,100287.15
2018-06-04T04:02:01.865Z,100282.92
2018-06-04T04:04:29.947Z,100284.81
2018-06-04T04:06:58.055Z,100282.44
2018-06-04T04:09:26.126Z,100279.16
2018-06-04T04:11:54.228Z,100278.56
2018-06-04T04:14:22.332Z,100274.45
2018-06-04T04:19:24.954Z,100266.42
2018-06-04T04:21:53.056Z,100272.64
2018-06-04T04:24:21.111Z,100268.27
2018-06-04T04:26:49.217Z,100266.42
2018-06-04T04:29:17.311Z,100269.52
2018-06-04T04:31:45.377Z,100278.20
2018-06-04T04:34:13.470Z,100268.12
2018-06-04T04:36:41.514Z,100276.66
2018-06-04T04:39:09.608Z,100267.92
2018-06-04T04:41:37.767Z,100272.36
2018-06-04T04:44:05.895Z,100271.00
2018-06-04T04:46:33.989Z,100273.78
2018-06-04T04:49:02.082Z,100276.83
2018-06-04T04:51:30.174Z,100277.39
2018-06-04T04:53:58.338Z,100286.19
2018-06-04T04:56:26.470Z,100280.46
2018-06-04T04:58:54.614Z,100274.50
2018-06-04T05:01:22.741Z,100284.66
2018-06-04T05:03:50.889Z,100282.50
2018-06-04T05:06:19.155Z,100279.02
2018-06-04T05:08:47.259Z,100278.30
2018-06-04T05:11:15.365Z,100272.39
2018-06-04T05:13:43.509Z,100290.34
2018-06-04T05:16:11.684Z,100280.27
2018-06-04T05:18:39.792Z,100293.17
2018-06-04T05:21:07.872Z,100283.19
2018-06-04T05:23:35.970Z,100281.84
2018-06-04T05:26:04.077Z,100285.44
2018-06-04T05:28:32.160Z,100282.46
2018-06-04T05:31:00.352Z,100281.15
2018-06-04T05:33:28.428Z,100274.66
2018-06-04T05:35:56.492Z,100283.12
2018-06-04T05:38:24.582Z,100277.70
2018-06-04T05:40:52.715Z,100284.02
2018-06-04T05:43:20.832Z,100280.83
2018-06-04T05:45:48.974Z,100281.41
2018-06-04T05:48:17.071Z,100279.84
2018-06-04T05:50:45.147Z,100286.12
2018-06-04T05:53:13.223Z,100283.42
2018-06-04T05:55:41.302Z,100279.34
2018-06-04T05:58:09.425Z,100285.91
2018-06-04T06:00:37.510Z,100288.17
2018-06-04T06:03:05.606Z,100282.19
2018-06-04T06:05:33.768Z,100275.38
2018-06-04T06:08:01.869Z,100275.64
2018-06-04T06:10:29.976Z,100269.09
2018-06-04T06:12:58.069Z,100269.94
2018-06-04T06:15:26.232Z,100262.56
2018-06-04T06:17:54.299Z,100267.47
2018-06-04T06:20:22.763Z,100270.47
2018-06-04T06:22:50.888Z,100266.93
2018-06-04T06:25:18.985Z,100266.64
2018-06-04T06:27:47.032Z,100265.01
2018-06-04T06:30:15.104Z,100263.91
2018-06-04T06:32:43.166Z,100262.56
2018-06-04T06:35:11.222Z,100252.20
2018-06-04T06:37:39.315Z,100259.55
2018-06-04T06:40:07.426Z,100263.93
2018-06-04T06:42:35.492Z,100263.36
2018-06-04T06:45:03.571Z,100251.09
2018-06-04T06:47:31.624Z,100251.61
2018-06-04T06:49:59.715Z,100240.66
2018-06-04T06:52:27.806Z,100248.80
2018-06-04T06:54:55.900Z,100249.09
2018-06-04T06:57:24.987Z,100234.58
2018-06-04T06:59:53.079Z,100230.20
2018-06-04T07:02:21.145Z,100235.95
2018-06-04T07:04:49.251Z,100233.26
2018-06-04T07:07:17.897Z,100229.17
2018-06-04T07:09:46.001Z,100235.16
2018-06-04T07:12:14.093Z,100234.53
2018-06-04T07:14:42.198Z,100233.46
2018-06-04T07:17:10.310Z,100237.55
2018-06-04T07:19:38.379Z,100233.16
2018-06-04T07:22:06.439Z,100235.81
2018-06-04T07:24:34.501Z,100238.52
2018-06-04T07:27:02.611Z,100229.22
2018-06-04T07:29:30.686Z,100229.73
2018-06-04T07:31:58.798Z,100225.88
2018-06-04T07:34:26.876Z,100228.59
2018-06-04T07:36:54.940Z,100219.20
2018-06-04T07:39:23.011Z,100220.27
2018-06-04T07:41:51.068Z,100207.95
2018-06-04T07:44:19.178Z,100219.84
2018-06-04T07:46:47.206Z,100219.80
2018-06-04T07:49:15.280Z,100208.92
2018-06-04T07:51:43.349Z,100211.06
2018-06-04T07:54:11.534Z,100214.05
2018-06-04T07:56:40.219Z,100209.95
2018-06-04T07:59:08.321Z,100212.38
2018-06-04T08:01:36.521Z,100214.54
2018-06-04T08:04:04.585Z,100210.14
2018-06-04T08:06:33.158Z,100208.75
2018-06-04T08:09:01.225Z,100207.02
2018-06-04T08:11:29.308Z,100206.77
2018-06-04T08:13:57.443Z,100214.14
2018-06-04T08:16:25.538Z,100203.42
2018-06-04T08:18:53.653Z,100201.17
2018-06-04T08:21:21.871Z,100193.09
2018-06-04T08:23:52.967Z,100188.14
2018-06-04T08:26:21.088Z,100187.25
2018-06-04T08:28:49.163Z,100184.27
2018-06-04T08:31:17.227Z,100187.68
2018-06-04T08:33:45.376Z,100175.92
2018-06-04T08:36:13.470Z,100183.66
2018-06-04T08:38:41.536Z,100180.51
2018-06-04T08:41:09.620Z,100178.54
2018-06-04T08:43:37.685Z,100172.22
2018-06-04T08:46:05.744Z,100168.11
2018-06-04T08:48:33.804Z,100169.70
2018-06-04T08:51:01.944Z,100171.89
2018-06-04T08:53:36.560Z,100164.17
2018-06-04T08:56:04.683Z,100161.28
2018-06-04T08:58:32.783Z,100159.67
2018-06-04T09:01:00.908Z,100162.44
2018-06-04T09:03:28.979Z,100164.27
2018-06-04T09:05:57.044Z,100162.06
2018-06-04T09:08:25.111Z,100156.39
2018-06-04T09:10:53.215Z,100160.03
2018-06-04T09:13:21.345Z,100159.55
2018-06-04T09:15:49.503Z,100160.55
2018-06-04T09:18:17.561Z,100165.17
2018-06-04T09:20:45.633Z,100160.00
2018-06-04T09:23:13.724Z,100163.59
2018-06-04T09:25:41.911Z,100158.27
2018-06-04T09:28:10.166Z,100162.04
2018-06-04T09:30:38.248Z,100169.06
2018-06-04T09:33:06.341Z,100168.19
2018-06-04T09:35:34.410Z,100165.42
2018-06-04T09:38:02.487Z,100165.00
2018-06-04T09:40:30.563Z,100161.63
2018-06-04T09:42:58.636Z,100161.63
2018-06-04T09:45:26.760Z,100157.74
2018-06-04T09:47:54.823Z,100153.83
2018-06-04T09:50:23.010Z,100155.59
2018-06-04T09:52:51.063Z,100158.63
2018-06-04T09:55:19.144Z,100155.84
2018-06-04T09:57:47.192Z,100150.00
2018-06-04T10:00:19.456Z,100152.73
2018-06-04T10:02:47.533Z,100142.23
2018-06-04T10:05:15.636Z,100145.20
2018-06-04T10:07:43.742Z,100148.48
2018-06-04T10:10:11.829Z,100140.39
2018-06-04T10:12:39.900Z,100133.27
2018-06-04T10:15:07.980Z,100135.41
2018-06-04T10:17:36.509Z,100136.52
2018-06-04T10:20:04.574Z,100140.94
2018-06-04T10:22:32.686Z,100133.70
2018-06-04T10:25:00.763Z,100136.31
2018-06-04T10:27:28.875Z,100139.25
2018-06-04T10:29:56.959Z,100130.45
2018-06-04T10:32:25.083Z,100129.45
2018-06-04T10:34:53.165Z,100124.75
2018-06-04T10:37:21.263Z,100130.27
2018-06-04T10:39:49.377Z,100136.69
2018-06-04T10:42:18.194Z,100129.52
2018-06-04T10:44:46.282Z,100131.08
2018-06-04T10:47:14.387Z,100131.96
2018-06-04T10:49:42.474Z,100121.59
2018-06-04T10:52:10.572Z,100126.76
2018-06-04T10:54:38.658Z,100125.21
2018-06-04T10:57:06.756Z,100126.59
2018-06-04T10:59:34.816Z,100121.87
2018-06-04T11:02:02.904Z,100123.05
2018-06-04T11:04:31.083Z,100111.55
2018-06-04T11:06:59.194Z,100103.38
2018-06-04T11:09:33.995Z,100108.42
2018-06-04T11:12:02.095Z,100110.63
2018-06-04T11:14:30.219Z,100109.13
2018-06-04T11:16:58.319Z,100100.61
2018-06-04T11:19:26.516Z,100094.30
2018-06-04T11:21:54.599Z,100095.21
2018-06-04T11:24:22.657Z,100086.23
2018-06-04T11:26:50.747Z,100085.16
2018-06-04T11:29:18.825Z,100085.42
2018-06-04T11:31:46.922Z,100089.61
2018-06-04T11:34:15.156Z,100091.05
2018-06-04T11:36:43.224Z,100081.25
2018-06-04T11:39:11.711Z,100082.94
2018-06-04T11:41:39.802Z,100085.48
2018-06-04T11:44:07.859Z,100081.45
2018-06-04T11:46:35.936Z,100078.11
2018-06-04T11:49:04.100Z,100080.59
2018-06-04T11:51:32.232Z,100069.21
2018-06-04T11:54:00.309Z,100073.52
2018-06-04T11:56:28.403Z,100078.78
2018-06-04T11:58:56.426Z,100080.19
2018-06-04T12:01:24.537Z,100074.48
2018-06-04T12:03:52.600Z,100078.20
2018-06-04T12:06:20.697Z,100070.44
2018-06-04T12:08:48.790Z,100073.59
2018-06-04T12:11:16.890Z,100071.08
2018-06-04T12:13:44.966Z,100074.66
2018-06-04T12:16:13.035Z,100067.45
2018-06-04T12:18:41.095Z,100062.91
2018-06-04T12:21:09.179Z,100058.19
2018-06-04T12:23:38.280Z,100051.26
2018-06-04T12:26:06.368Z,100048.11
2018-06-04T12:28:34.479Z,100052.91
2018-06-04T12:31:02.596Z,100038.23
2018-06-04T12:33:30.664Z,100038.28
2018-06-04T12:35:58.722Z,100035.60
2018-06-04T12:38:26.816Z,100038.64
2018-06-04T12:40:54.914Z,100035.41
2018-06-04T12:43:22.980Z,100032.80
2018-06-04T12:45:51.064Z,100030.75
2018-06-04T12:48:19.168Z,100024.89
2018-06-04T12:50:47.255Z,100023.20
2018-06-04T12:53:15.542Z,100024.18
2018-06-04T12:55:43.603Z,100015.70
2018-06-04T12:58:11.666Z,100020.98
2018-06-04T13:00:39.755Z,100014.89
2018-06-04T13:03:07.840Z,100010.00
2018-06-04T13:05:35.927Z,100014.08
2018-06-04T13:08:03.992Z,100018.62
2018-06-04T13:10:32.371Z,100015.38
2018-06-04T13:13:00.418Z,100012.19
2018-06-04T13:15:28.499Z,100006.78
2018-06-04T13:17:56.573Z,100008.71
2018-06-04T13:20:24.646Z,100002.21
2018-06-04T13:22:52.712Z,99997.86
2018-06-04T13:25:20.762Z,99996.16
2018-06-04T13:27:48.855Z,99990.42
2018-06-04T13:30:16.905Z,99997.27
2018-06-04T13:32:45.000Z,99979.95
2018-06-04T13:35:14.313Z,99987.33
2018-06-04T13:37:42.493Z,99987.78
2018-06-04T13:40:10.560Z,99980.24
2018-06-04T13:42:39.083Z,99976.69
2018-06-04T13:45:07.172Z,99977.67
2018-06-04T13:47:35.271Z,99969.33
2018-06-04T13:50:03.352Z,99974.73
2018-06-04T13:52:31.413Z,99965.42
2018-06-04T13:54:59.475Z,99959.17
2018-06-04T13:57:27.526Z,99970.81
2018-06-04T13:59:55.632Z,99949.77
2018-06-04T14:02:23.672Z,99953.82
2018-06-04T14:04:51.761Z,99951.63
2018-06-04T14:07:19.828Z,99944.62
2018-06-04T14:09:47.909Z,99942.12
2018-06-04T14:12:15.987Z,99940.73
2018-06-04T14:14:44.098Z,99941.48
2018-06-04T14:17:12.186Z,99934.55
2018-06-04T14:19:40.238Z,99924.59
2018-06-04T14:22:08.343Z,99925.89
2018-06-04T14:24:36.427Z,99927.09
2018-06-04T14:27:04.499Z,99925.75
2018-06-04T14:29:32.600Z,99924.28
2018-06-04T14:32:00.694Z,99923.24
2018-06-04T14:34:28.791Z,99925.95
2018-06-04T14:36:56.884Z,99914.42
2018-06-04T14:39:25.234Z,99912.59
2018-06-04T14:41:53.291Z,99908.63
2018-06-04T14:44:21.389Z,99908.71
2018-06-04T14:46:49.418Z,99900.45
2018-06-04T14:49:17.490Z,99904.19
2018-06-04T14:51:45.571Z,99892.23
2018-06-04T14:54:13.648Z,99891.27
2018-06-04T14:56:42.415Z,99891.66
2018-06-04T14:59:10.513Z,99895.80
2018-06-04T15:01:38.642Z,99896.56
2018-06-04T15:04:06.758Z,99881.80
2018-06-04T15:06:34.820Z,99882.64
2018-06-04T15:09:02.957Z,99884.64
2018-06-04T15:11:31.023Z,99875.33
2018-06-04T15:13:59.078Z,99876.28
2018-06-04T15:16:27.165Z,99874.75
2018-06-04T15:18:55.214Z,99870.09
2018-06-04T15:21:23.278Z,99867.55
2018-06-04T15:23:51.356Z,99865.26
2018-06-04T15:26:19.453Z,99870.98
2018-06-04T15:28:47.589Z,99868.92
2018-06-04T15:31:16.355Z,99853.19
2018-06-04T15:33:44.424Z,99862.93
2018-06-04T15:36:12.479Z,99856.52
2018-06-04T15:38:40.535Z,99853.05
2018-06-04T15:41:08.587Z,99848.26
2018-06-04T15:43:36.660Z,99841.20
2018-06-04T15:46:04.832Z,99839.44
2018-06-04T15:48:32.941Z,99850.56
2018-06-04T15:51:01.043Z,99845.34
2018-06-04T15:53:29.189Z,99846.81
2018-06-04T15:55:57.242Z,99845.39
2018-06-04T15:58:25.336Z,99848.11
2018-06-04T16:00:53.395Z,99845.37
2018-06-04T16:03:21.491Z,99847.86
2018-06-04T16:05:49.571Z,99840.49
2018-06-04T16:08:18.637Z,99842.52
2018-06-04T16:10:46.705Z,99845.19
2018-06-04T16:13:14.779Z,99842.91
2018-06-04T16:15:42.847Z,99835.06
2018-06-04T16:18:10.914Z,99841.14
2018-06-04T16:20:38.987Z,99841.95
2018-06-04T16:23:07.070Z,99834.59
2018-06-04T16:25:35.125Z,99835.59
2018-06-04T16:28:03.234Z,99835.72
2018-06-04T16:30:31.318Z,99838.34
2018-06-04T16:32:59.431Z,99834.08
2018-06-04T16:35:27.484Z,99823.00
2018-06-04T16:38:03.049Z,99828.19
2018-06-04T16:40:31.799Z,99823.41
2018-06-04T16:43:01.781Z,99829.64
2018-06-04T16:45:30.488Z,99827.83
2018-06-04T16:47:59.821Z,99829.86
2018-06-04T16:50:28.642Z,99825.84
2018-06-04T16:52:58.522Z,99827.51
2018-06-04T16:55:30.482Z,99830.24
2018-06-04T16:58:01.388Z,99825.63
2018-06-04T17:00:29.863Z,99825.50
2018-06-04T17:02:59.171Z,99826.53
2018-06-04T17:05:28.028Z,99822.06
2018-06-04T17:08:01.451Z,99821.80
2018-06-04T17:10:30.259Z,99832.61
2018-06-04T17:13:02.852Z,99825.39
2018-06-04T17:15:31.583Z,99824.13
2018-06-04T17:17:59.996Z,99830.30
2018-06-04T17:20:28.109Z,99828.26
2018-06-04T17:22:56.167Z,99823.18
2018-06-04T17:25:24.241Z,99825.37
2018-06-04T17:27:52.316Z,99813.52
2018-06-04T17:30:20.391Z,99813.56
2018-06-04T17:32:48.466Z,99807.53
2018-06-04T17:35:16.516Z,99811.84
2018-06-04T17:37:44.609Z,99817.60
2018-06-04T17:40:12.666Z,99818.98
2018-06-04T17:42:40.725Z,99823.10
2018-06-04T17:45:08.784Z,99820.49
2018-06-04T17:47:36.858Z,99816.52
2018-06-04T17:50:04.913Z,99814.25
2018-06-04T17:52:32.984Z,99818.03
2018-06-04T17:55:01.117Z,99818.95
2018-06-04T17:57:29.579Z,99824.49
2018-06-04T17:59:57.683Z,99834.09
2018-06-04T18:02:25.824Z,99831.09
2018-06-04T18:04:54.261Z,99830.91
2018-06-04T18:07:22.643Z,99832.28
2018-06-04T18:09:50.728Z,99830.45
2018-06-04T18:12:18.799Z,99840.63
2018-06-04T18:14:46.852Z,99840.45
2018-06-04T18:17:14.941Z,99838.30
2018-06-04T18:19:43.528Z,99840.05
2018-06-04T18:22:11.663Z,99852.76
2018-06-04T18:24:39.742Z,99854.91
2018-06-04T18:27:07.835Z,99856.43
2018-06-04T18:29:35.956Z,99849.78
2018-06-04T18:32:04.124Z,99857.80
2018-06-04T18:34:32.178Z,99857.72
2018-06-04T18:37:00.300Z,99861.59
2018-06-04T18:39:29.248Z,99864.05
2018-06-04T18:41:57.356Z,99865.67
2018-06-04T18:44:25.447Z,99863.81
2018-06-04T18:46:53.543Z,99860.56
2018-06-04T18:49:21.615Z,99866.88
2018-06-04T18:51:49.713Z,99865.41
2018-06-04T18:54:17.775Z,99864.50
2018-06-04T18:56:45.834Z,99867.19
2018-06-04T18:59:13.915Z,99876.08
2018-06-04T19:01:42.308Z,99874.35
2018-06-04T19:04:16.791Z,99877.66
2018-06-04T19:06:44.904Z,99880.89
2018-06-04T19:09:13.582Z,99879.72
2018-06-04T19:11:41.600Z,99875.30
2018-06-04T19:14:09.691Z,99879.52
2018-06-04T19:16:37.777Z,99889.38
2018-06-04T19:19:05.854Z,99892.62
2018-06-04T19:21:33.960Z,99893.38
2018-06-04T19:24:02.044Z,99899.60
2018-06-04T19:26:30.191Z,99904.63
2018-06-04T19:28:58.522Z,99913.92
2018-06-04T19:31:26.628Z,99919.29
2018-06-04T19:33:54.742Z,99920.32
2018-06-04T19:36:22.812Z,99920.85
2018-06-04T19:38:50.915Z,99928.66
2018-06-04T19:41:18.990Z,99932.78
2018-06-04T19:43:47.078Z,99936.08
2018-06-04T19:46:15.135Z,99944.36
2018-06-04T19:48:43.194Z,99946.70
2018-06-04T19:51:11.279Z,99953.70
2018-06-04T19:53:39.375Z,99951.45
2018-06-04T19:56:08.418Z,99950.23
2018-06-04T19:58:36.626Z,99955.52
2018-06-04T20:01:04.735Z,99956.07
2018-06-04T20:03:33.070Z,99963.52
2018-06-04T20:06:03.489Z,99962.72
2018-06-04T20:08:31.672Z,99963.66
2018-06-04T20:11:30.064Z,99970.75
2018-06-04T20:13:58.200Z,99976.85
2018-06-04T20:16:26.412Z,99980.03
2018-06-04T20:18:55.486Z,99983.20
2018-06-04T20:21:23.825Z,99987.03
2018-06-04T20:23:54.240Z,99981.64
2018-06-04T20:26:28.095Z,99982.61
2018-06-04T20:29:03.603Z,99990.59
2018-06-04T20:32:06.925Z,99997.61
2018-06-04T20:34:35.037Z,99996.89
2018-06-04T20:37:03.220Z,100000.69
2018-06-04T20:39:31.359Z,100005.06
2018-06-04T20:41:59.569Z,100004.20
2018-06-04T20:44:28.677Z,100006.09
2018-06-04T20:46:56.875Z,100012.77
2018-06-04T20:49:25.337Z,100020.50
2018-06-04T20:51:53.547Z,100015.88
2018-06-04T20:54:22.403Z,100016.73
2018-06-04T20:56:50.784Z,100018.89
2018-06-04T20:59:19.058Z,100023.81
2018-06-04T21:01:47.166Z,100026.92
2018-06-04T21:04:15.410Z,100024.28
2018-06-04T21:06:43.559Z,100013.20
2018-06-04T21:09:11.709Z,100017.84
2018-06-04T21:11:39.839Z,100016.30
2018-06-04T21:14:07.937Z,100016.06
2018-06-04T21:16:36.149Z,100018.61
2018-06-04T21:19:04.310Z,100019.80
2018-06-04T21:21:32.573Z,100024.41
2018-06-04T21:24:00.693Z,100018.97
2018-06-04T21:26:28.851Z,100016.97
2018-06-04T21:28:56.985Z,100017.63
2018-06-04T21:31:25.210Z,100018.67
2018-06-04T21:36:44.325Z,100021.42
2018-06-04T21:39:12.552Z,100022.00
2018-06-04T21:41:41.838Z,100016.97
2018-06-04T21:44:21.280Z,100020.60
2018-06-04T21:46:50.293Z,100023.03
2018-06-04T21:49:20.054Z,100022.07
2018-06-04T21:51:48.906Z,100028.95
2018-06-04T21:54:17.728Z,100026.17
2018-06-04T21:56:46.238Z,100032.70
2018-06-04T21:59:14.557Z,100028.98
2018-06-04T22:01:42.638Z,100024.16
2018-06-04T22:04:10.757Z,100030.64
2018-06-04T22:06:38.944Z,100034.74
2018-06-04T22:09:08.248Z,100030.47
2018-06-04T22:11:36.471Z,100027.48
2018-06-04T22:14:05.520Z,100026.70
2018-06-04T22:16:34.403Z,100027.82
2018-06-04T22:19:02.539Z,100033.37
2018-06-04T22:21:31.465Z,100034.02
2018-06-04T22:24:02.620Z,100036.42
2018-06-04T22:26:30.744Z,100038.41
2018-06-04T22:28:59.047Z,100032.14
2018-06-04T22:31:27.204Z,100034.03
2018-06-04T22:34:02.679Z,100034.94
2018-06-04T22:36:35.632Z,100039.58
2018-06-04T22:39:04.445Z,100034.68
2018-06-04T22:41:32.571Z,100030.95
2018-06-04T22:44:00.635Z,100034.47
2018-06-04T22:46:28.709Z,100037.30
2018-06-04T22:48:56.755Z,100034.30
2018-06-04T22:51:24.823Z,100030.27
2018-06-04T22:53:52.944Z,100023.80
2018-06-04T22:56:21.004Z,100028.43
2018-06-04T22:58:49.064Z,100040.17
2018-06-04T23:01:17.163Z,100031.16
2018-06-04T23:03:45.224Z,100028.20
2018-06-04T23:06:13.297Z,100027.91
2018-06-04T23:08:41.355Z,100028.73
2018-06-04T23:11:09.423Z,100023.57
2018-06-04T23:13:37.501Z,100035.36
2018-06-04T23:16:05.596Z,100031.87
2018-06-04T23:18:33.864Z,100034.66
2018-06-04T23:21:02.074Z,100028.89
2018-06-04T23:23:30.122Z,100027.55
2018-06-04T23:25:58.174Z,100023.22
2018-06-04T23:28:26.231Z,100027.83
2018-06-04T23:30:54.300Z,100029.20
2018-06-04T23:33:22.360Z,100024.30
2018-06-04T23:35:50.431Z,100027.09
2018-06-04T23:38:18.499Z,100030.13
2018-06-04T23:40:46.576Z,100033.13
2018-06-04T23:43:14.643Z,100034.45
2018-06-04T23:45:42.796Z,100030.66
2018-06-04T23:48:10.898Z,100032.33
2018-06-04T23:50:38.948Z,100032.33
2018-06-04T23:53:07.022Z,100029.61
2018-06-04T23:55:35.078Z,100031.55
2018-06-04T23:58:03.138Z,100030.73
